Time;durP1;ratioP1;P1;durP2;ratioP2;P2;SDS_P1;SDS_P2;PMS_P1;PMS_P2;Temp;Humidity;BMP_temperature;BMP_pressure;BME280_temperature;BME280_humidity;BME280_pressure;Samples;Min_cycle;Max_cycle;Signal;HPM_P1;HPM_P2
2020/06/23 00:00:10;;;;;;;6;5.400001;;;;;;;16.87;100;95920;;;;
2020/06/23 00:01:15;;;;;;;6;5.400001;;;;;;;16.87;100;95920;;;;
2020/06/23 00:02:15;;;;;;;6;5.400001;;;;;;;16.87;100;95920;;;;
2020/06/23 00:03:16;;;;;;;6;5.400001;;;;;;;16.87;100;95920;;;;
2020/06/23 00:04:16;;;;;;;6;5.400001;;;;;;;16.87;100;95920;;;;
2020/06/23 00:05:17;;;;;;;6;5.400001;;;;;;;16.87;100;95920;;;;
2020/06/23 00:06:18;;;;;;;6;5.400001;;;;;;;16.87;100;95920;;;;
2020/06/23 00:07:18;;;;;;;6;5.400001;;;;;;;16.87;100;95920;;;;
2020/06/23 00:08:19;;;;;;;5.749999;5.25;;;;;;;16.78;100;95915.72;;;;
2020/06/23 00:09:19;;;;;;;5.749999;5.25;;;;;;;16.78;100;95915.72;;;;
2020/06/23 00:10:20;;;;;;;5.749999;5.25;;;;;;;16.78;100;95915.72;;;;
2020/06/23 00:11:20;;;;;;;5.749999;5.25;;;;;;;16.78;100;95915.72;;;;
2020/06/23 00:12:21;;;;;;;5.749999;5.25;;;;;;;16.78;100;95915.72;;;;
2020/06/23 00:13:21;;;;;;;5.749999;5.25;;;;;;;16.78;100;95915.72;;;;
2020/06/23 00:14:22;;;;;;;5.749999;5.25;;;;;;;16.78;100;95915.72;;;;
2020/06/23 00:15:22;;;;;;;5.749999;5.25;;;;;;;16.78;100;95915.72;;;;
2020/06/23 00:16:23;;;;;;;5.749999;5.25;;;;;;;16.78;100;95915.72;;;;
2020/06/23 00:17:23;;;;;;;5.749999;5.25;;;;;;;16.78;100;95915.72;;;;
2020/06/23 00:18:24;;;;;;;5.749999;5.25;;;;;;;16.78;100;95915.72;;;;
2020/06/23 00:19:24;;;;;;;6.15;5.550001;;;;;;;16.57;100;95905.29;;;;
2020/06/23 00:20:25;;;;;;;6.15;5.550001;;;;;;;16.57;100;95905.29;;;;
2020/06/23 00:21:25;;;;;;;6.15;5.550001;;;;;;;16.57;100;95905.29;;;;
2020/06/23 00:22:26;;;;;;;6.15;5.550001;;;;;;;16.57;100;95905.29;;;;
2020/06/23 00:23:26;;;;;;;6.15;5.550001;;;;;;;16.57;100;95905.29;;;;
2020/06/23 00:24:27;;;;;;;6.15;5.550001;;;;;;;16.57;100;95905.29;;;;
2020/06/23 00:25:28;;;;;;;6.15;5.550001;;;;;;;16.57;100;95905.29;;;;
2020/06/23 00:26:28;;;;;;;6.15;5.550001;;;;;;;16.57;100;95905.29;;;;
2020/06/23 00:27:29;;;;;;;6.15;5.550001;;;;;;;16.57;100;95905.29;;;;
2020/06/23 00:28:29;;;;;;;6.15;5.550001;;;;;;;16.57;100;95905.29;;;;
2020/06/23 00:29:30;;;;;;;5.849999;5.349999;;;;;;;16.38;100;95903.42;;;;
2020/06/23 00:30:30;;;;;;;5.849999;5.349999;;;;;;;16.38;100;95903.42;;;;
2020/06/23 00:31:31;;;;;;;5.849999;5.349999;;;;;;;16.38;100;95903.42;;;;
2020/06/23 00:32:31;;;;;;;5.849999;5.349999;;;;;;;16.38;100;95903.42;;;;
2020/06/23 00:33:32;;;;;;;5.849999;5.349999;;;;;;;16.38;100;95903.42;;;;
2020/06/23 00:34:33;;;;;;;5.849999;5.349999;;;;;;;16.38;100;95903.42;;;;
2020/06/23 00:35:33;;;;;;;5.849999;5.349999;;;;;;;16.38;100;95903.42;;;;
2020/06/23 00:36:34;;;;;;;5.849999;5.349999;;;;;;;16.38;100;95903.42;;;;
2020/06/23 00:42:02;;;;;;;6.400001;5.799999;;;;;;;16.13;100;95905.35;;;;
2020/06/23 00:43:05;;;;;;;6.400001;5.799999;;;;;;;16.13;100;95905.35;;;;
2020/06/23 00:44:07;;;;;;;6.400001;5.799999;;;;;;;16.13;100;95905.35;;;;
2020/06/23 00:45:07;;;;;;;6.400001;5.799999;;;;;;;16.13;100;95905.35;;;;
2020/06/23 00:46:11;;;;;;;6.400001;5.799999;;;;;;;16.13;100;95905.35;;;;
2020/06/23 00:47:11;;;;;;;6.400001;5.799999;;;;;;;16.13;100;95905.35;;;;
2020/06/23 00:48:12;;;;;;;6.400001;5.799999;;;;;;;16.13;100;95905.35;;;;
2020/06/23 00:49:13;;;;;;;6.400001;5.799999;;;;;;;16.13;100;95905.35;;;;
2020/06/23 00:50:13;;;;;;;6.400001;5.799999;;;;;;;16.13;100;95905.35;;;;
2020/06/23 00:51:15;;;;;;;6.55;5.95;;;;;;;15.92;100;95906.72;;;;
2020/06/23 00:52:16;;;;;;;6.55;5.95;;;;;;;15.92;100;95906.72;;;;
2020/06/23 00:53:16;;;;;;;6.55;5.95;;;;;;;15.92;100;95906.72;;;;
2020/06/23 00:54:17;;;;;;;6.55;5.95;;;;;;;15.92;100;95906.72;;;;
2020/06/23 00:55:17;;;;;;;6.55;5.95;;;;;;;15.92;100;95906.72;;;;
2020/06/23 00:56:20;;;;;;;6.55;5.95;;;;;;;15.92;100;95906.72;;;;
2020/06/23 00:57:20;;;;;;;6.55;5.95;;;;;;;15.92;100;95906.72;;;;
2020/06/23 00:58:21;;;;;;;6.55;5.95;;;;;;;15.92;100;95906.72;;;;
2020/06/23 00:59:21;;;;;;;6.55;5.95;;;;;;;15.92;100;95906.72;;;;
2020/06/23 01:00:22;;;;;;;6.55;5.95;;;;;;;15.92;100;95906.72;;;;
2020/06/23 01:01:26;;;;;;;6.649999;6.050001;;;;;;;15.55;100;95907.44;;;;
2020/06/23 01:02:27;;;;;;;6.649999;6.050001;;;;;;;15.55;100;95907.44;;;;
2020/06/23 01:03:27;;;;;;;6.649999;6.050001;;;;;;;15.55;100;95907.44;;;;
2020/06/23 01:04:27;;;;;;;6.649999;6.050001;;;;;;;15.55;100;95907.44;;;;
2020/06/23 01:05:28;;;;;;;6.649999;6.050001;;;;;;;15.55;100;95907.44;;;;
2020/06/23 01:06:31;;;;;;;6.649999;6.050001;;;;;;;15.55;100;95907.44;;;;
2020/06/23 01:07:31;;;;;;;6.649999;6.050001;;;;;;;15.55;100;95907.44;;;;
2020/06/23 01:08:31;;;;;;;6.649999;6.050001;;;;;;;15.55;100;95907.44;;;;
2020/06/23 01:09:32;;;;;;;6.649999;6.050001;;;;;;;15.55;100;95907.44;;;;
2020/06/23 01:10:32;;;;;;;6.649999;6.050001;;;;;;;15.55;100;95907.44;;;;
2020/06/23 01:11:33;;;;;;;6.699998;6.1;;;;;;;15.21;100;95901.22;;;;
2020/06/23 01:12:34;;;;;;;6.699998;6.1;;;;;;;15.21;100;95901.22;;;;
2020/06/23 01:13:35;;;;;;;6.699998;6.1;;;;;;;15.21;100;95901.22;;;;
2020/06/23 01:14:36;;;;;;;6.699998;6.1;;;;;;;15.21;100;95901.22;;;;
2020/06/23 01:15:36;;;;;;;6.699998;6.1;;;;;;;15.21;100;95901.22;;;;
2020/06/23 01:16:39;;;;;;;6.699998;6.1;;;;;;;15.21;100;95901.22;;;;
2020/06/23 01:17:39;;;;;;;6.699998;6.1;;;;;;;15.21;100;95901.22;;;;
2020/06/23 01:18:40;;;;;;;6.699998;6.1;;;;;;;15.21;100;95901.22;;;;
2020/06/23 01:19:40;;;;;;;6.699998;6.1;;;;;;;15.21;100;95901.22;;;;
2020/06/23 01:20:41;;;;;;;6.699998;6.1;;;;;;;15.21;100;95901.22;;;;
2020/06/23 01:21:42;;;;;;;6.699998;6.1;;;;;;;15.21;100;95901.22;;;;
2020/06/23 01:22:42;;;;;;;6.6;6;;;;;;;14.86;100;95902.95;;;;
2020/06/23 01:23:43;;;;;;;6.6;6;;;;;;;14.86;100;95902.95;;;;
2020/06/23 01:24:43;;;;;;;6.6;6;;;;;;;14.86;100;95902.95;;;;
2020/06/23 01:25:44;;;;;;;6.6;6;;;;;;;14.86;100;95902.95;;;;
2020/06/23 01:26:47;;;;;;;6.6;6;;;;;;;14.86;100;95902.95;;;;
2020/06/23 01:27:47;;;;;;;6.6;6;;;;;;;14.86;100;95902.95;;;;
2020/06/23 01:28:48;;;;;;;6.6;6;;;;;;;14.86;100;95902.95;;;;
2020/06/23 01:29:48;;;;;;;6.6;6;;;;;;;14.86;100;95902.95;;;;
2020/06/23 01:30:49;;;;;;;6.6;6;;;;;;;14.86;100;95902.95;;;;
2020/06/23 01:31:52;;;;;;;6.6;6;;;;;;;14.86;100;95902.95;;;;
2020/06/23 01:32:52;;;;;;;7.150001;6.5;;;;;;;14.61;100;95898.86;;;;
2020/06/23 01:33:54;;;;;;;7.150001;6.5;;;;;;;14.61;100;95898.86;;;;
2020/06/23 01:34:54;;;;;;;7.150001;6.5;;;;;;;14.61;100;95898.86;;;;
2020/06/23 01:35:55;;;;;;;7.150001;6.5;;;;;;;14.61;100;95898.86;;;;
2020/06/23 01:37:07;;;;;;;7.150001;6.5;;;;;;;14.61;100;95898.86;;;;
2020/06/23 01:38:07;;;;;;;7.150001;6.5;;;;;;;14.61;100;95898.86;;;;
2020/06/23 01:39:08;;;;;;;7.150001;6.5;;;;;;;14.61;100;95898.86;;;;
2020/06/23 01:40:10;;;;;;;7.150001;6.5;;;;;;;14.61;100;95898.86;;;;
2020/06/23 01:41:14;;;;;;;7.150001;6.5;;;;;;;14.61;100;95898.86;;;;
2020/06/23 01:42:15;;;;;;;7.150001;6.5;;;;;;;14.61;100;95898.86;;;;
2020/06/23 01:43:15;;;;;;;7.150001;6.5;;;;;;;14.61;100;95898.86;;;;
2020/06/23 01:44:16;;;;;;;7.749999;6.95;;;;;;;14.34;100;95895.95;;;;
2020/06/23 01:45:16;;;;;;;7.749999;6.95;;;;;;;14.34;100;95895.95;;;;
2020/06/23 01:46:19;;;;;;;7.749999;6.95;;;;;;;14.34;100;95895.95;;;;
2020/06/23 01:47:19;;;;;;;7.749999;6.95;;;;;;;14.34;100;95895.95;;;;
2020/06/23 01:48:20;;;;;;;7.749999;6.95;;;;;;;14.34;100;95895.95;;;;
2020/06/23 01:49:20;;;;;;;7.749999;6.95;;;;;;;14.34;100;95895.95;;;;
2020/06/23 01:50:21;;;;;;;7.749999;6.95;;;;;;;14.34;100;95895.95;;;;
2020/06/23 01:51:22;;;;;;;7.749999;6.95;;;;;;;14.34;100;95895.95;;;;
2020/06/23 01:52:22;;;;;;;7.749999;6.95;;;;;;;14.34;100;95895.95;;;;
2020/06/23 01:53:22;;;;;;;7.749999;6.95;;;;;;;14.34;100;95895.95;;;;
2020/06/23 01:54:23;;;;;;;7.550001;6.75;;;;;;;14.16;100;95891.22;;;;
2020/06/23 01:55:23;;;;;;;7.550001;6.75;;;;;;;14.16;100;95891.22;;;;
2020/06/23 01:56:24;;;;;;;7.550001;6.75;;;;;;;14.16;100;95891.22;;;;
2020/06/23 01:57:25;;;;;;;7.550001;6.75;;;;;;;14.16;100;95891.22;;;;
2020/06/23 01:58:26;;;;;;;7.550001;6.75;;;;;;;14.16;100;95891.22;;;;
2020/06/23 01:59:27;;;;;;;7.550001;6.75;;;;;;;14.16;100;95891.22;;;;
2020/06/23 02:00:27;;;;;;;7.550001;6.75;;;;;;;14.16;100;95891.22;;;;
2020/06/23 02:01:30;;;;;;;7.550001;6.75;;;;;;;14.16;100;95891.22;;;;
2020/06/23 02:02:31;;;;;;;7.550001;6.75;;;;;;;14.16;100;95891.22;;;;
2020/06/23 02:03:31;;;;;;;7.550001;6.75;;;;;;;14.16;100;95891.22;;;;
2020/06/23 02:04:31;;;;;;;7.849999;7.05;;;;;;;13.93;100;95897.58;;;;
2020/06/23 02:05:32;;;;;;;7.849999;7.05;;;;;;;13.93;100;95897.58;;;;
2020/06/23 02:06:33;;;;;;;7.849999;7.05;;;;;;;13.93;100;95897.58;;;;
2020/06/23 02:07:33;;;;;;;7.849999;7.05;;;;;;;13.93;100;95897.58;;;;
2020/06/23 02:08:34;;;;;;;7.849999;7.05;;;;;;;13.93;100;95897.58;;;;
2020/06/23 02:09:34;;;;;;;7.849999;7.05;;;;;;;13.93;100;95897.58;;;;
2020/06/23 02:10:35;;;;;;;7.849999;7.05;;;;;;;13.93;100;95897.58;;;;
2020/06/23 02:11:36;;;;;;;7.849999;7.05;;;;;;;13.93;100;95897.58;;;;
2020/06/23 02:12:36;;;;;;;7.849999;7.05;;;;;;;13.93;100;95897.58;;;;
2020/06/23 02:13:37;;;;;;;7.849999;7.05;;;;;;;13.93;100;95897.58;;;;
2020/06/23 02:14:37;;;;;;;7.849999;7.05;;;;;;;13.93;100;95897.58;;;;
2020/06/23 02:15:38;;;;;;;8.049999;7.4;;;;;;;13.79;100;95897.99;;;;
2020/06/23 02:16:40;;;;;;;8.049999;7.4;;;;;;;13.79;100;95897.99;;;;
2020/06/23 02:17:41;;;;;;;8.049999;7.4;;;;;;;13.79;100;95897.99;;;;
2020/06/23 02:18:41;;;;;;;8.049999;7.4;;;;;;;13.79;100;95897.99;;;;
2020/06/23 02:19:42;;;;;;;8.049999;7.4;;;;;;;13.79;100;95897.99;;;;
2020/06/23 02:20:42;;;;;;;8.049999;7.4;;;;;;;13.79;100;95897.99;;;;
2020/06/23 02:21:47;;;;;;;8.049999;7.4;;;;;;;13.79;100;95897.99;;;;
2020/06/23 02:22:48;;;;;;;8.049999;7.4;;;;;;;13.79;100;95897.99;;;;
2020/06/23 02:23:49;;;;;;;8.049999;7.4;;;;;;;13.79;100;95897.99;;;;
2020/06/23 02:24:49;;;;;;;8.049999;7.4;;;;;;;13.79;100;95897.99;;;;
2020/06/23 02:25:49;;;;;;;8.549999;7.599999;;;;;;;13.59;100;95899.34;;;;
2020/06/23 02:26:50;;;;;;;8.549999;7.599999;;;;;;;13.59;100;95899.34;;;;
2020/06/23 02:27:51;;;;;;;8.549999;7.599999;;;;;;;13.59;100;95899.34;;;;
2020/06/23 02:28:51;;;;;;;8.549999;7.599999;;;;;;;13.59;100;95899.34;;;;
2020/06/23 02:29:52;;;;;;;8.549999;7.599999;;;;;;;13.59;100;95899.34;;;;
2020/06/23 02:30:52;;;;;;;8.549999;7.599999;;;;;;;13.59;100;95899.34;;;;
2020/06/23 02:31:52;;;;;;;8.549999;7.599999;;;;;;;13.59;100;95899.34;;;;
2020/06/23 02:32:53;;;;;;;8.549999;7.599999;;;;;;;13.59;100;95899.34;;;;
2020/06/23 02:33:54;;;;;;;8.549999;7.599999;;;;;;;13.59;100;95899.34;;;;
2020/06/23 02:34:54;;;;;;;8.549999;7.599999;;;;;;;13.59;100;95899.34;;;;
2020/06/23 02:35:55;;;;;;;8.549999;7.599999;;;;;;;13.59;100;95899.34;;;;
2020/06/23 02:36:55;;;;;;;8.9;8.1;;;;;;;13.48;100;95897.58;;;;
2020/06/23 02:37:56;;;;;;;8.9;8.1;;;;;;;13.48;100;95897.58;;;;
2020/06/23 02:38:56;;;;;;;8.9;8.1;;;;;;;13.48;100;95897.58;;;;
2020/06/23 02:39:56;;;;;;;8.9;8.1;;;;;;;13.48;100;95897.58;;;;
2020/06/23 02:40:57;;;;;;;8.9;8.1;;;;;;;13.48;100;95897.58;;;;
2020/06/23 02:41:57;;;;;;;8.9;8.1;;;;;;;13.48;100;95897.58;;;;
2020/06/23 02:42:58;;;;;;;8.9;8.1;;;;;;;13.48;100;95897.58;;;;
2020/06/23 02:43:59;;;;;;;8.9;8.1;;;;;;;13.48;100;95897.58;;;;
2020/06/23 02:45:00;;;;;;;8.9;8.1;;;;;;;13.48;100;95897.58;;;;
2020/06/23 02:46:00;;;;;;;8.9;8.1;;;;;;;13.48;100;95897.58;;;;
2020/06/23 02:47:01;;;;;;;7.4;6.7;;;;;;;13.31;100;95891.67;;;;
2020/06/23 02:48:02;;;;;;;7.4;6.7;;;;;;;13.31;100;95891.67;;;;
2020/06/23 02:49:02;;;;;;;7.4;6.7;;;;;;;13.31;100;95891.67;;;;
2020/06/23 02:50:03;;;;;;;7.4;6.7;;;;;;;13.31;100;95891.67;;;;
2020/06/23 02:51:06;;;;;;;7.4;6.7;;;;;;;13.31;100;95891.67;;;;
2020/06/23 02:52:07;;;;;;;7.4;6.7;;;;;;;13.31;100;95891.67;;;;
2020/06/23 02:53:07;;;;;;;7.4;6.7;;;;;;;13.31;100;95891.67;;;;
2020/06/23 02:54:08;;;;;;;7.4;6.7;;;;;;;13.31;100;95891.67;;;;
2020/06/23 02:55:08;;;;;;;7.4;6.7;;;;;;;13.31;100;95891.67;;;;
2020/06/23 02:56:14;;;;;;;7.4;6.7;;;;;;;13.31;100;95891.67;;;;
2020/06/23 02:57:15;;;;;;;7.4;6.7;;;;;;;13.31;100;95891.67;;;;
2020/06/23 02:58:15;;;;;;;9.199999;7.75;;;;;;;13.2;100;95908.36;;;;
2020/06/23 02:59:16;;;;;;;9.199999;7.75;;;;;;;13.2;100;95908.36;;;;
2020/06/23 03:00:16;;;;;;;9.199999;7.75;;;;;;;13.2;100;95908.36;;;;
2020/06/23 03:01:25;;;;;;;9.199999;7.75;;;;;;;13.2;100;95908.36;;;;
2020/06/23 03:02:26;;;;;;;9.199999;7.75;;;;;;;13.2;100;95908.36;;;;
2020/06/23 03:03:26;;;;;;;9.199999;7.75;;;;;;;13.2;100;95908.36;;;;
2020/06/23 03:04:30;;;;;;;9.199999;7.75;;;;;;;13.2;100;95908.36;;;;
2020/06/23 03:05:31;;;;;;;9.199999;7.75;;;;;;;13.2;100;95908.36;;;;
2020/06/23 03:06:31;;;;;;;9.199999;7.75;;;;;;;13.2;100;95908.36;;;;
2020/06/23 03:07:32;;;;;;;9.199999;7.75;;;;;;;13.2;100;95908.36;;;;
2020/06/23 03:08:32;;;;;;;8.549999;7.749999;;;;;;;13.04;100;95914.9;;;;
2020/06/23 03:09:33;;;;;;;8.549999;7.749999;;;;;;;13.04;100;95914.9;;;;
2020/06/23 03:10:33;;;;;;;8.549999;7.749999;;;;;;;13.04;100;95914.9;;;;
2020/06/23 03:11:35;;;;;;;8.549999;7.749999;;;;;;;13.04;100;95914.9;;;;
2020/06/23 03:12:36;;;;;;;8.549999;7.749999;;;;;;;13.04;100;95914.9;;;;
2020/06/23 03:13:36;;;;;;;8.549999;7.749999;;;;;;;13.04;100;95914.9;;;;
2020/06/23 03:14:37;;;;;;;8.549999;7.749999;;;;;;;13.04;100;95914.9;;;;
2020/06/23 03:15:37;;;;;;;8.549999;7.749999;;;;;;;13.04;100;95914.9;;;;
2020/06/23 03:16:38;;;;;;;8.549999;7.749999;;;;;;;13.04;100;95914.9;;;;
2020/06/23 03:17:38;;;;;;;8.549999;7.749999;;;;;;;13.04;100;95914.9;;;;
2020/06/23 03:18:39;;;;;;;8.549999;7.749999;;;;;;;13.04;100;95914.9;;;;
2020/06/23 03:19:40;;;;;;;10.5;8.399999;;;;;;;12.95;100;95912.08;;;;
2020/06/23 03:20:40;;;;;;;10.5;8.399999;;;;;;;12.95;100;95912.08;;;;
2020/06/23 03:21:41;;;;;;;10.5;8.399999;;;;;;;12.95;100;95912.08;;;;
2020/06/23 03:22:42;;;;;;;10.5;8.399999;;;;;;;12.95;100;95912.08;;;;
2020/06/23 03:23:42;;;;;;;10.5;8.399999;;;;;;;12.95;100;95912.08;;;;
2020/06/23 03:24:43;;;;;;;10.5;8.399999;;;;;;;12.95;100;95912.08;;;;
2020/06/23 03:25:43;;;;;;;10.5;8.399999;;;;;;;12.95;100;95912.08;;;;
2020/06/23 03:26:44;;;;;;;10.5;8.399999;;;;;;;12.95;100;95912.08;;;;
2020/06/23 03:27:44;;;;;;;10.5;8.399999;;;;;;;12.95;100;95912.08;;;;
2020/06/23 03:28:45;;;;;;;10.5;8.399999;;;;;;;12.95;100;95912.08;;;;
2020/06/23 03:29:45;;;;;;;8.799999;8;;;;;;;12.85;100;95920.09;;;;
2020/06/23 03:30:46;;;;;;;8.799999;8;;;;;;;12.85;100;95920.09;;;;
2020/06/23 03:31:46;;;;;;;8.799999;8;;;;;;;12.85;100;95920.09;;;;
2020/06/23 03:32:47;;;;;;;8.799999;8;;;;;;;12.85;100;95920.09;;;;
2020/06/23 03:33:48;;;;;;;8.799999;8;;;;;;;12.85;100;95920.09;;;;
2020/06/23 03:34:48;;;;;;;8.799999;8;;;;;;;12.85;100;95920.09;;;;
2020/06/23 03:35:49;;;;;;;8.799999;8;;;;;;;12.85;100;95920.09;;;;
2020/06/23 03:36:49;;;;;;;8.799999;8;;;;;;;12.85;100;95920.09;;;;
2020/06/23 03:37:50;;;;;;;8.799999;8;;;;;;;12.85;100;95920.09;;;;
2020/06/23 03:38:50;;;;;;;8.799999;8;;;;;;;12.85;100;95920.09;;;;
2020/06/23 03:39:51;;;;;;;8.799999;8;;;;;;;12.85;100;95920.09;;;;
2020/06/23 03:40:52;;;;;;;8.700001;7.9;;;;;;;12.82;100;95915.56;;;;
2020/06/23 03:41:52;;;;;;;8.700001;7.9;;;;;;;12.82;100;95915.56;;;;
2020/06/23 03:42:53;;;;;;;8.700001;7.9;;;;;;;12.82;100;95915.56;;;;
2020/06/23 03:43:53;;;;;;;8.700001;7.9;;;;;;;12.82;100;95915.56;;;;
2020/06/23 03:44:54;;;;;;;8.700001;7.9;;;;;;;12.82;100;95915.56;;;;
2020/06/23 03:45:54;;;;;;;8.700001;7.9;;;;;;;12.82;100;95915.56;;;;
2020/06/23 03:46:55;;;;;;;8.700001;7.9;;;;;;;12.82;100;95915.56;;;;
2020/06/23 03:48:00;;;;;;;8.700001;7.9;;;;;;;12.82;100;95915.56;;;;
2020/06/23 03:49:01;;;;;;;8.700001;7.9;;;;;;;12.82;100;95915.56;;;;
2020/06/23 03:50:01;;;;;;;8.700001;7.9;;;;;;;12.82;100;95915.56;;;;
2020/06/23 03:51:05;;;;;;;9.450001;8.550001;;;;;;;12.76;100;95913.26;;;;
2020/06/23 03:52:05;;;;;;;9.450001;8.550001;;;;;;;12.76;100;95913.26;;;;
2020/06/23 03:53:06;;;;;;;9.450001;8.550001;;;;;;;12.76;100;95913.26;;;;
2020/06/23 03:54:07;;;;;;;9.450001;8.550001;;;;;;;12.76;100;95913.26;;;;
2020/06/23 03:55:07;;;;;;;9.450001;8.550001;;;;;;;12.76;100;95913.26;;;;
2020/06/23 03:56:11;;;;;;;9.450001;8.550001;;;;;;;12.76;100;95913.26;;;;
2020/06/23 03:57:12;;;;;;;9.450001;8.550001;;;;;;;12.76;100;95913.26;;;;
2020/06/23 03:58:12;;;;;;;9.450001;8.550001;;;;;;;12.76;100;95913.26;;;;
2020/06/23 03:59:13;;;;;;;9.450001;8.550001;;;;;;;12.76;100;95913.26;;;;
2020/06/23 04:00:13;;;;;;;9.450001;8.550001;;;;;;;12.76;100;95913.26;;;;
2020/06/23 04:01:16;;;;;;;9;8.1;;;;;;;12.84;100;95899.9;;;;
2020/06/23 04:02:16;;;;;;;9;8.1;;;;;;;12.84;100;95899.9;;;;
2020/06/23 04:03:17;;;;;;;9;8.1;;;;;;;12.84;100;95899.9;;;;
2020/06/23 04:04:17;;;;;;;9;8.1;;;;;;;12.84;100;95899.9;;;;
2020/06/23 04:05:18;;;;;;;9;8.1;;;;;;;12.84;100;95899.9;;;;
2020/06/23 04:06:19;;;;;;;9;8.1;;;;;;;12.84;100;95899.9;;;;
2020/06/23 04:07:19;;;;;;;9;8.1;;;;;;;12.84;100;95899.9;;;;
2020/06/23 04:08:20;;;;;;;9;8.1;;;;;;;12.84;100;95899.9;;;;
2020/06/23 04:09:20;;;;;;;9;8.1;;;;;;;12.84;100;95899.9;;;;
2020/06/23 04:10:21;;;;;;;9;8.1;;;;;;;12.84;100;95899.9;;;;
2020/06/23 04:11:22;;;;;;;9;8.1;;;;;;;12.84;100;95899.9;;;;
2020/06/23 04:12:23;;;;;;;8.900001;8.1;;;;;;;12.89;100;95904.5;;;;
2020/06/23 04:13:23;;;;;;;8.900001;8.1;;;;;;;12.89;100;95904.5;;;;
2020/06/23 04:14:24;;;;;;;8.900001;8.1;;;;;;;12.89;100;95904.5;;;;
2020/06/23 04:15:25;;;;;;;8.900001;8.1;;;;;;;12.89;100;95904.5;;;;
2020/06/23 04:16:25;;;;;;;8.900001;8.1;;;;;;;12.89;100;95904.5;;;;
2020/06/23 04:17:27;;;;;;;8.900001;8.1;;;;;;;12.89;100;95904.5;;;;
2020/06/23 04:18:27;;;;;;;8.900001;8.1;;;;;;;12.89;100;95904.5;;;;
2020/06/23 04:19:27;;;;;;;8.900001;8.1;;;;;;;12.89;100;95904.5;;;;
2020/06/23 04:20:28;;;;;;;8.900001;8.1;;;;;;;12.89;100;95904.5;;;;
2020/06/23 04:21:28;;;;;;;8.900001;8.1;;;;;;;12.89;100;95904.5;;;;
2020/06/23 04:22:29;;;;;;;9.1;8.3;;;;;;;13.03;100;95911.88;;;;
2020/06/23 04:23:29;;;;;;;9.1;8.3;;;;;;;13.03;100;95911.88;;;;
2020/06/23 04:24:30;;;;;;;9.1;8.3;;;;;;;13.03;100;95911.88;;;;
2020/06/23 04:25:31;;;;;;;9.1;8.3;;;;;;;13.03;100;95911.88;;;;
2020/06/23 04:26:31;;;;;;;9.1;8.3;;;;;;;13.03;100;95911.88;;;;
2020/06/23 04:27:32;;;;;;;9.1;8.3;;;;;;;13.03;100;95911.88;;;;
2020/06/23 04:28:32;;;;;;;9.1;8.3;;;;;;;13.03;100;95911.88;;;;
2020/06/23 04:29:33;;;;;;;9.1;8.3;;;;;;;13.03;100;95911.88;;;;
2020/06/23 04:30:33;;;;;;;9.1;8.3;;;;;;;13.03;100;95911.88;;;;
2020/06/23 04:31:34;;;;;;;9.1;8.3;;;;;;;13.03;100;95911.88;;;;
2020/06/23 04:32:35;;;;;;;9.1;8.3;;;;;;;13.03;100;95911.88;;;;
2020/06/23 04:33:35;;;;;;;9.6;8.700001;;;;;;;13.15;100;95915.44;;;;
2020/06/23 04:34:36;;;;;;;9.6;8.700001;;;;;;;13.15;100;95915.44;;;;
2020/06/23 04:35:42;;;;;;;9.6;8.700001;;;;;;;13.15;100;95915.44;;;;
2020/06/23 04:36:46;;;;;;;9.6;8.700001;;;;;;;13.15;100;95915.44;;;;
2020/06/23 04:37:49;;;;;;;9.6;8.700001;;;;;;;13.15;100;95915.44;;;;
2020/06/23 04:39:01;;;;;;;9.6;8.700001;;;;;;;13.15;100;95915.44;;;;
2020/06/23 04:40:06;;;;;;;9.6;8.700001;;;;;;;13.15;100;95915.44;;;;
2020/06/23 04:41:07;;;;;;;9.6;8.700001;;;;;;;13.15;100;95915.44;;;;
2020/06/23 04:42:09;;;;;;;9.6;8.700001;;;;;;;13.15;100;95915.44;;;;
2020/06/23 04:43:12;;;;;;;0;0;;;;;;;0;0;0;;;;
2020/06/23 04:44:13;;;;;;;0;0;;;;;;;0;0;0;;;;
2020/06/23 04:45:14;;;;;;;0;0;;;;;;;0;0;0;;;;
2020/06/23 04:46:15;;;;;;;0;0;;;;;;;0;0;0;;;;
2020/06/23 04:47:16;;;;;;;0;0;;;;;;;0;0;0;;;;
2020/06/23 04:48:17;;;;;;;0;0;;;;;;;0;0;0;;;;
2020/06/23 04:49:18;;;;;;;0;0;;;;;;;0;0;0;;;;
2020/06/23 04:50:19;;;;;;;0;0;;;;;;;0;0;0;;;;
2020/06/23 04:51:20;;;;;;;0;0;;;;;;;0;0;0;;;;
2020/06/23 04:52:20;;;;;;;0;0;;;;;;;0;0;0;;;;
2020/06/23 04:53:21;;;;;;;0;0;;;;;;;0;0;0;;;;
2020/06/23 04:54:22;;;;;;;0;0;;;;;;;0;0;0;;;;
2020/06/23 04:55:22;;;;;;;0;0;;;;;;;0;0;0;;;;
2020/06/23 04:56:23;;;;;;;0;0;;;;;;;0;0;0;;;;
2020/06/23 04:57:24;;;;;;;0;0;;;;;;;0;0;0;;;;
2020/06/23 04:58:24;;;;;;;0;0;;;;;;;0;0;0;;;;
2020/06/23 04:59:25;;;;;;;0;0;;;;;;;0;0;0;;;;
2020/06/23 05:00:25;;;;;;;0;0;;;;;;;0;0;0;;;;
2020/06/23 05:01:26;;;;;;;0;0;;;;;;;0;0;0;;;;
2020/06/23 05:02:27;;;;;;;0;0;;;;;;;0;0;0;;;;
2020/06/23 05:03:27;;;;;;;0;0;;;;;;;0;0;0;;;;
2020/06/23 05:04:27;;;;;;;0;0;;;;;;;0;0;0;;;;
2020/06/23 05:05:28;;;;;;;0;0;;;;;;;0;0;0;;;;
2020/06/23 05:06:28;;;;;;;0;0;;;;;;;0;0;0;;;;
2020/06/23 05:07:29;;;;;;;0;0;;;;;;;0;0;0;;;;
2020/06/23 05:08:29;;;;;;;0;0;;;;;;;0;0;0;;;;
2020/06/23 05:09:30;;;;;;;0;0;;;;;;;0;0;0;;;;
2020/06/23 05:10:30;;;;;;;0;0;;;;;;;0;0;0;;;;
2020/06/23 05:11:31;;;;;;;0;0;;;;;;;0;0;0;;;;
2020/06/23 05:12:31;;;;;;;0;0;;;;;;;0;0;0;;;;
2020/06/23 05:13:32;;;;;;;16.65;15.1;;;;;;;14.28;100;95924.08;;;;
2020/06/23 05:14:33;;;;;;;16.65;15.1;;;;;;;14.28;100;95924.08;;;;
2020/06/23 05:15:34;;;;;;;16.65;15.1;;;;;;;14.28;100;95924.08;;;;
2020/06/23 05:16:35;;;;;;;16.65;15.1;;;;;;;14.28;100;95924.08;;;;
2020/06/23 05:17:35;;;;;;;16.65;15.1;;;;;;;14.28;100;95924.08;;;;
2020/06/23 05:18:37;;;;;;;16.65;15.1;;;;;;;14.28;100;95924.08;;;;
2020/06/23 05:19:37;;;;;;;16.65;15.1;;;;;;;14.28;100;95924.08;;;;
2020/06/23 05:20:38;;;;;;;16.65;15.1;;;;;;;14.28;100;95924.08;;;;
2020/06/23 05:21:38;;;;;;;16.65;15.1;;;;;;;14.28;100;95924.08;;;;
2020/06/23 05:22:39;;;;;;;16.65;15.1;;;;;;;14.28;100;95924.08;;;;
2020/06/23 05:23:40;;;;;;;0;0;;;;;;;0;0;0;;;;
2020/06/23 05:24:40;;;;;;;0;0;;;;;;;0;0;0;;;;
2020/06/23 05:25:41;;;;;;;0;0;;;;;;;0;0;0;;;;
2020/06/23 05:26:42;;;;;;;0;0;;;;;;;0;0;0;;;;
2020/06/23 05:27:43;;;;;;;0;0;;;;;;;0;0;0;;;;
2020/06/23 05:28:43;;;;;;;0;0;;;;;;;0;0;0;;;;
2020/06/23 05:29:44;;;;;;;0;0;;;;;;;0;0;0;;;;
2020/06/23 05:30:44;;;;;;;0;0;;;;;;;0;0;0;;;;
2020/06/23 05:31:45;;;;;;;0;0;;;;;;;0;0;0;;;;
2020/06/23 05:32:46;;;;;;;0;0;;;;;;;0;0;0;;;;
2020/06/23 05:33:46;;;;;;;0;0;;;;;;;0;0;0;;;;
2020/06/23 05:34:47;;;;;;;0;0;;;;;;;0;0;0;;;;
2020/06/23 05:35:47;;;;;;;0;0;;;;;;;0;0;0;;;;
2020/06/23 05:36:48;;;;;;;0;0;;;;;;;0;0;0;;;;
2020/06/23 05:37:48;;;;;;;0;0;;;;;;;0;0;0;;;;
2020/06/23 05:38:49;;;;;;;0;0;;;;;;;0;0;0;;;;
2020/06/23 05:39:49;;;;;;;0;0;;;;;;;0;0;0;;;;
2020/06/23 05:40:50;;;;;;;0;0;;;;;;;0;0;0;;;;
2020/06/23 05:41:51;;;;;;;0;0;;;;;;;0;0;0;;;;
2020/06/23 05:42:51;;;;;;;0;0;;;;;;;0;0;0;;;;
2020/06/23 05:43:52;;;;;;;0;0;;;;;;;0;0;0;;;;
2020/06/23 05:44:54;;;;;;;0;0;;;;;;;0;0;0;;;;
2020/06/23 05:45:54;;;;;;;0;0;;;;;;;0;0;0;;;;
2020/06/23 05:46:54;;;;;;;0;0;;;;;;;0;0;0;;;;
2020/06/23 05:47:55;;;;;;;0;0;;;;;;;0;0;0;;;;
2020/06/23 05:48:55;;;;;;;0;0;;;;;;;0;0;0;;;;
2020/06/23 05:49:56;;;;;;;0;0;;;;;;;0;0;0;;;;
2020/06/23 05:50:56;;;;;;;0;0;;;;;;;0;0;0;;;;
2020/06/23 05:51:57;;;;;;;0;0;;;;;;;0;0;0;;;;
2020/06/23 05:52:57;;;;;;;0;0;;;;;;;0;0;0;;;;
2020/06/23 05:53:58;;;;;;;14.1;12.8;;;;;;;16.13;100;95929.44;;;;
2020/06/23 05:54:58;;;;;;;14.1;12.8;;;;;;;16.13;100;95929.44;;;;
2020/06/23 05:55:59;;;;;;;14.1;12.8;;;;;;;16.13;100;95929.44;;;;
2020/06/23 05:57:00;;;;;;;14.1;12.8;;;;;;;16.13;100;95929.44;;;;
2020/06/23 05:58:01;;;;;;;14.1;12.8;;;;;;;16.13;100;95929.44;;;;
2020/06/23 05:59:02;;;;;;;14.1;12.8;;;;;;;16.13;100;95929.44;;;;
2020/06/23 06:00:03;;;;;;;14.1;12.8;;;;;;;16.13;100;95929.44;;;;
2020/06/23 06:01:08;;;;;;;14.1;12.8;;;;;;;16.13;100;95929.44;;;;
2020/06/23 06:02:09;;;;;;;14.1;12.8;;;;;;;16.13;100;95929.44;;;;
2020/06/23 06:03:09;;;;;;;14.1;12.8;;;;;;;16.13;100;95929.44;;;;
2020/06/23 06:04:10;;;;;;;14.1;12.8;;;;;;;16.13;100;95929.44;;;;
2020/06/23 06:05:11;;;;;;;12.15;11.15;;;;;;;16.78;100;95935.22;;;;
2020/06/23 06:06:11;;;;;;;12.15;11.15;;;;;;;16.78;100;95935.22;;;;
2020/06/23 06:07:12;;;;;;;12.15;11.15;;;;;;;16.78;100;95935.22;;;;
2020/06/23 06:08:13;;;;;;;12.15;11.15;;;;;;;16.78;100;95935.22;;;;
2020/06/23 06:09:13;;;;;;;12.15;11.15;;;;;;;16.78;100;95935.22;;;;
2020/06/23 06:10:14;;;;;;;12.15;11.15;;;;;;;16.78;100;95935.22;;;;
2020/06/23 06:11:15;;;;;;;12.15;11.15;;;;;;;16.78;100;95935.22;;;;
2020/06/23 06:12:15;;;;;;;12.15;11.15;;;;;;;16.78;100;95935.22;;;;
2020/06/23 06:13:16;;;;;;;12.15;11.15;;;;;;;16.78;100;95935.22;;;;
2020/06/23 06:14:19;;;;;;;12.15;11.15;;;;;;;16.78;100;95935.22;;;;
2020/06/23 06:15:20;;;;;;;12.8;11.6;;;;;;;17.4;100;95949.51;;;;
2020/06/23 06:16:22;;;;;;;12.8;11.6;;;;;;;17.4;100;95949.51;;;;
2020/06/23 06:17:24;;;;;;;12.8;11.6;;;;;;;17.4;100;95949.51;;;;
2020/06/23 06:18:24;;;;;;;12.8;11.6;;;;;;;17.4;100;95949.51;;;;
2020/06/23 06:19:25;;;;;;;12.8;11.6;;;;;;;17.4;100;95949.51;;;;
2020/06/23 06:20:25;;;;;;;12.8;11.6;;;;;;;17.4;100;95949.51;;;;